Time;durP1;ratioP1;P1;durP2;ratioP2;P2;SDS_P1;SDS_P2;PMS_P1;PMS_P2;Temp;Humidity;BMP_temperature;BMP_pressure;BME280_temperature;BME280_humidity;BME280_pressure;Samples;Min_cycle;Max_cycle;Signal;HPM_P1;HPM_P2
2021/09/26 00:00:08;;;;;;;15.17;13.87;;;17.20;99.90;;;;;;5051790;28;20404;-75
2021/09/26 00:02:34;;;;;;;15.80;14.03;;;17.20;99.90;;;;;;5050690;28;20419;-68
2021/09/26 00:05:00;;;;;;;15.37;14.00;;;17.20;99.90;;;;;;5052152;28;20487;-68
2021/09/26 00:07:26;;;;;;;15.57;14.07;;;17.20;99.90;;;;;;5031843;28;20261;-68
2021/09/26 00:09:51;;;;;;;14.20;13.00;;;17.20;99.90;;;;;;5052085;28;20955;-69
2021/09/26 00:12:17;;;;;;;15.30;13.77;;;17.20;99.90;;;;;;5051201;28;20205;-68
2021/09/26 00:14:43;;;;;;;15.13;13.83;;;17.20;99.90;;;;;;5052173;28;20184;-69
2021/09/26 00:17:09;;;;;;;14.13;12.73;;;17.20;99.90;;;;;;5044173;28;20178;-69
2021/09/26 00:19:35;;;;;;;13.53;12.30;;;17.20;99.90;;;;;;5032072;28;20405;-68
2021/09/26 00:22:01;;;;;;;14.17;12.97;;;17.20;99.90;;;;;;5031980;28;20270;-69
2021/09/26 00:24:26;;;;;;;13.80;12.70;;;17.20;99.90;;;;;;5031267;28;21045;-68
2021/09/26 00:26:52;;;;;;;14.37;13.07;;;17.20;99.90;;;;;;5032073;28;20232;-68
2021/09/26 00:29:18;;;;;;;13.93;12.63;;;17.20;99.90;;;;;;5030976;28;20175;-69
2021/09/26 00:31:43;;;;;;;14.63;13.33;;;17.20;99.90;;;;;;5031960;28;20523;-68
2021/09/26 00:34:09;;;;;;;13.43;12.20;;;17.20;99.90;;;;;;5031173;28;20170;-69
2021/09/26 00:36:35;;;;;;;15.77;14.10;;;17.20;99.90;;;;;;5032183;28;20174;-68
2021/09/26 00:39:01;;;;;;;14.10;12.77;;;17.20;99.90;;;;;;5031931;28;20166;-68
2021/09/26 00:41:27;;;;;;;14.30;12.93;;;17.20;99.90;;;;;;5030903;28;21194;-68
2021/09/26 00:43:53;;;;;;;14.67;13.20;;;17.10;99.90;;;;;;5016551;28;20405;-68
2021/09/26 00:46:18;;;;;;;14.10;12.83;;;17.10;99.90;;;;;;5037798;28;20232;-69
2021/09/26 00:48:44;;;;;;;13.93;12.50;;;17.10;99.90;;;;;;5055728;28;20182;-68
2021/09/26 00:51:11;;;;;;;14.20;12.83;;;17.10;99.90;;;;;;5037251;28;20178;-69
2021/09/26 00:53:41;;;;;;;14.23;12.90;;;17.10;99.90;;;;;;5037741;28;20202;-68
2021/09/26 00:56:07;;;;;;;14.97;13.10;;;17.10;99.90;;;;;;5055323;28;20454;-74
2021/09/26 00:58:33;;;;;;;14.73;13.30;;;17.10;99.90;;;;;;5055380;28;20424;-68
2021/09/26 01:00:59;;;;;;;14.97;13.57;;;17.10;99.90;;;;;;5054071;28;20414;-68
2021/09/26 01:03:25;;;;;;;15.43;14.10;;;17.10;99.90;;;;;;5035015;28;20904;-68
2021/09/26 01:06:14;;;;;;;14.37;13.07;;;17.10;99.90;;;;;;5035270;28;20417;-68
2021/09/26 01:09:19;;;;;;;14.83;13.50;;;17.20;99.90;;;;;;5053587;28;20416;-69
2021/09/26 01:11:56;;;;;;;15.23;13.77;;;17.10;99.90;;;;;;5053900;28;20446;-68
2021/09/26 01:14:46;;;;;;;14.13;12.73;;;17.10;99.90;;;;;;5054623;28;20420;-70
2021/09/26 01:17:38;;;;;;;14.47;13.13;;;17.10;99.90;;;;;;5054432;28;20420;-69
2021/09/26 01:20:21;;;;;;;14.60;13.30;;;17.10;99.90;;;;;;5055295;28;20400;-68
2021/09/26 01:23:05;;;;;;;14.43;13.13;;;17.10;99.90;;;;;;5040142;28;20821;-69
2021/09/26 01:25:49;;;;;;;13.77;12.50;;;17.10;99.90;;;;;;5034354;28;20413;-69
2021/09/26 01:28:32;;;;;;;14.20;12.90;;;17.10;99.90;;;;;;5034619;28;20420;-69
2021/09/26 01:31:05;;;;;;;13.83;12.57;;;17.10;99.90;;;;;;5035142;28;20831;-69
2021/09/26 01:33:38;;;;;;;15.17;13.77;;;17.00;99.90;;;;;;5034141;28;20475;-68
2021/09/26 01:36:39;;;;;;;15.80;13.80;;;17.00;99.90;;;;;;5035054;28;20405;-68
2021/09/26 01:39:10;;;;;;;14.47;13.27;;;17.00;99.90;;;;;;5013289;28;20429;-68
2021/09/26 01:41:59;;;;;;;14.77;13.37;;;17.00;99.90;;;;;;5035770;28;20421;-68
2021/09/26 01:44:54;;;;;;;14.97;13.30;;;17.00;99.90;;;;;;5033784;28;20525;-68
2021/09/26 01:47:30;;;;;;;14.30;13.00;;;17.10;99.90;;;;;;4999780;28;20467;-69
2021/09/26 01:50:02;;;;;;;14.90;13.50;;;17.10;99.90;;;;;;5034758;28;20492;-68
2021/09/26 01:52:31;;;;;;;14.47;13.17;;;17.10;99.90;;;;;;5033945;28;20563;-68
2021/09/26 01:54:58;;;;;;;14.50;13.10;;;17.20;99.90;;;;;;5033552;28;20409;-68
2021/09/26 01:57:25;;;;;;;14.50;13.17;;;17.20;99.90;;;;;;5033760;28;20851;-68
2021/09/26 01:59:52;;;;;;;14.77;13.37;;;17.30;99.90;;;;;;5034475;28;20418;-68
2021/09/26 02:02:19;;;;;;;14.23;13.03;;;17.30;99.90;;;;;;5033862;28;20915;-69
2021/09/26 02:04:54;;;;;;;15.37;13.90;;;17.30;99.90;;;;;;5034477;28;20813;-68
2021/09/26 02:07:21;;;;;;;13.67;12.47;;;17.30;99.90;;;;;;5033600;28;20746;-69
2021/09/26 02:09:47;;;;;;;14.20;12.90;;;17.20;99.90;;;;;;5034335;28;20796;-68
2021/09/26 02:12:15;;;;;;;13.97;12.63;;;17.20;99.90;;;;;;5033484;28;20440;-75
2021/09/26 02:14:44;;;;;;;14.77;13.37;;;17.20;99.90;;;;;;5034434;28;20897;-68
2021/09/26 02:17:10;;;;;;;15.13;13.60;;;17.20;99.90;;;;;;5034088;28;20889;-74
2021/09/26 02:19:37;;;;;;;15.93;14.10;;;17.20;99.90;;;;;;5015799;28;20412;-68
2021/09/26 02:22:08;;;;;;;15.07;13.77;;;17.20;99.90;;;;;;5034377;28;20453;-68
2021/09/26 02:24:35;;;;;;;14.90;13.50;;;17.30;99.90;;;;;;5033237;28;20406;-68
2021/09/26 02:27:02;;;;;;;14.00;12.67;;;17.40;99.90;;;;;;5034067;28;20401;-68
2021/09/26 02:29:28;;;;;;;14.97;13.67;;;17.40;99.90;;;;;;5015482;28;20964;-69
2021/09/26 02:31:54;;;;;;;15.30;13.90;;;17.40;99.90;;;;;;5033847;28;20503;-68
2021/09/26 02:34:19;;;;;;;15.37;13.83;;;17.40;99.90;;;;;;5033028;28;20571;-69
2021/09/26 02:36:45;;;;;;;15.80;14.50;;;17.40;99.90;;;;;;5021377;28;20178;-68
2021/09/26 02:39:16;;;;;;;16.10;14.57;;;17.50;99.90;;;;;;5033552;28;20436;-74
2021/09/26 02:42:04;;;;;;;16.20;14.80;;;17.50;99.90;;;;;;4999624;28;20181;-69
2021/09/26 02:44:49;;;;;;;15.17;13.93;;;17.50;99.90;;;;;;5032895;28;20768;-68
2021/09/26 02:47:25;;;;;;;15.13;13.83;;;17.50;99.90;;;;;;5032706;28;20516;-75
2021/09/26 02:49:53;;;;;;;17.17;15.57;;;17.50;99.90;;;;;;5033651;28;20404;-69
2021/09/26 02:52:20;;;;;;;15.10;13.80;;;17.60;99.90;;;;;;5032688;28;20464;-68
2021/09/26 02:54:46;;;;;;;16.63;14.97;;;17.60;99.90;;;;;;5033208;28;20420;-68
2021/09/26 02:57:13;;;;;;;16.10;14.60;;;17.60;99.90;;;;;;5048394;28;20424;-75
2021/09/26 02:59:39;;;;;;;15.63;14.30;;;17.60;99.90;;;;;;5052928;28;20388;-68
2021/09/26 03:02:06;;;;;;;15.93;14.53;;;17.60;99.90;;;;;;5053186;28;20474;-68
2021/09/26 03:04:32;;;;;;;15.67;14.30;;;17.60;99.90;;;;;;5016861;28;20986;-68
2021/09/26 03:06:58;;;;;;;15.53;14.13;;;17.60;99.90;;;;;;5032933;28;20409;-68
2021/09/26 03:09:24;;;;;;;14.57;13.17;;;17.60;99.90;;;;;;5032044;28;20488;-69
2021/09/26 03:11:50;;;;;;;14.93;13.70;;;17.60;99.90;;;;;;5033140;28;20576;-68
2021/09/26 03:14:16;;;;;;;16.23;13.83;;;17.60;99.90;;;;;;5014700;28;20660;-74
2021/09/26 03:16:42;;;;;;;16.50;14.80;;;17.60;99.90;;;;;;5033222;28;20429;-68
2021/09/26 03:19:08;;;;;;;14.43;13.13;;;17.60;99.90;;;;;;5033341;28;20413;-68
2021/09/26 03:21:34;;;;;;;15.20;13.70;;;17.60;99.90;;;;;;5032180;28;20202;-68
2021/09/26 03:23:59;;;;;;;13.70;12.50;;;17.70;99.90;;;;;;5033045;28;20440;-69
2021/09/26 03:26:25;;;;;;;13.70;12.50;;;17.70;99.90;;;;;;5032068;28;20178;-68
2021/09/26 03:28:52;;;;;;;14.07;12.63;;;17.70;99.90;;;;;;5015301;28;20184;-68
2021/09/26 03:31:18;;;;;;;16.00;14.60;;;17.70;99.90;;;;;;5031801;28;20171;-75
2021/09/26 03:33:44;;;;;;;14.17;12.97;;;17.60;99.90;;;;;;5015219;28;20448;-68
2021/09/26 03:36:10;;;;;;;13.27;12.07;;;17.60;99.90;;;;;;5032441;28;20413;-69
2021/09/26 03:38:36;;;;;;;14.40;12.97;;;17.60;99.90;;;;;;5014257;28;20428;-68
2021/09/26 03:41:03;;;;;;;13.10;12.00;;;17.60;99.90;;;;;;5015042;28;20458;-68
2021/09/26 03:43:29;;;;;;;12.97;11.77;;;17.70;99.90;;;;;;5031726;28;20193;-69
2021/09/26 03:45:55;;;;;;;13.27;11.93;;;17.60;99.90;;;;;;5032585;28;20469;-69
2021/09/26 03:48:22;;;;;;;13.70;12.40;;;17.70;99.90;;;;;;5031652;28;20763;-69
2021/09/26 03:50:50;;;;;;;12.90;11.53;;;17.70;99.90;;;;;;5032494;28;20186;-68
2021/09/26 03:53:16;;;;;;;13.20;12.00;;;17.70;99.90;;;;;;5032123;28;20945;-74
2021/09/26 03:55:43;;;;;;;12.83;11.63;;;17.70;99.90;;;;;;5015397;28;20433;-68
2021/09/26 03:58:09;;;;;;;13.07;11.87;;;17.70;99.90;;;;;;5014921;28;20535;-68
2021/09/26 04:00:35;;;;;;;12.73;11.60;;;17.70;99.90;;;;;;5031583;28;20413;-68
2021/09/26 04:03:01;;;;;;;13.00;11.90;;;17.70;99.90;;;;;;5032388;28;20208;-68
2021/09/26 04:05:27;;;;;;;12.03;11.03;;;17.80;99.90;;;;;;5031455;28;20413;-68
2021/09/26 04:07:53;;;;;;;12.70;11.40;;;17.80;99.90;;;;;;5032184;28;20404;-68
2021/09/26 04:10:19;;;;;;;13.00;11.90;;;17.80;99.90;;;;;;5042721;28;20499;-75
2021/09/26 04:12:45;;;;;;;12.60;11.40;;;17.80;99.90;;;;;;5051591;28;20236;-68
2021/09/26 04:15:12;;;;;;;12.70;11.50;;;17.80;99.90;;;;;;5051849;28;20186;-69
2021/09/26 04:17:38;;;;;;;12.30;11.23;;;17.80;99.90;;;;;;5050217;28;20416;-68
2021/09/26 04:20:05;;;;;;;13.40;12.20;;;17.80;99.90;;;;;;5052025;28;20407;-68
2021/09/26 04:22:32;;;;;;;14.30;12.90;;;17.80;99.90;;;;;;5051196;28;20417;-69
2021/09/26 04:24:57;;;;;;;14.70;13.20;;;17.80;99.90;;;;;;5052060;28;20408;-68
2021/09/26 04:27:23;;;;;;;15.40;13.87;;;17.80;99.90;;;;;;5033477;28;20880;-69
2021/09/26 04:29:49;;;;;;;13.73;12.43;;;17.80;99.90;;;;;;5051348;28;20225;-69
2021/09/26 04:32:15;;;;;;;14.10;12.80;;;17.80;99.90;;;;;;5034098;28;20288;-68
2021/09/26 04:34:41;;;;;;;15.57;12.50;;;17.80;99.90;;;;;;5051104;28;20385;-69
2021/09/26 04:37:07;;;;;;;13.90;12.60;;;17.80;99.90;;;;;;5051939;28;20416;-68
2021/09/26 04:39:33;;;;;;;12.90;11.83;;;17.80;99.90;;;;;;5050921;28;20463;-68
2021/09/26 04:41:59;;;;;;;14.67;13.37;;;17.80;99.90;;;;;;5051827;28;20894;-68
2021/09/26 04:44:25;;;;;;;13.57;12.37;;;17.80;99.90;;;;;;5042364;28;20665;-68
2021/09/26 04:46:50;;;;;;;12.63;11.53;;;17.80;99.90;;;;;;5031157;28;20301;-68
2021/09/26 04:49:16;;;;;;;14.00;12.63;;;17.80;99.90;;;;;;5031939;28;20193;-68
2021/09/26 04:51:42;;;;;;;13.23;12.10;;;17.80;99.90;;;;;;5031037;28;20182;-68
2021/09/26 04:54:08;;;;;;;12.47;11.20;;;17.90;99.90;;;;;;5031827;28;20198;-68
2021/09/26 04:56:33;;;;;;;13.70;12.50;;;17.90;99.90;;;;;;5031018;28;20198;-69
2021/09/26 04:58:59;;;;;;;12.53;11.43;;;17.90;99.90;;;;;;5031687;28;20175;-68
2021/09/26 05:01:25;;;;;;;13.60;11.37;;;17.90;99.90;;;;;;5031078;28;20376;-68
2021/09/26 05:03:51;;;;;;;12.03;10.93;;;17.80;99.90;;;;;;5031697;28;20179;-69
2021/09/26 05:06:16;;;;;;;12.70;11.70;;;17.90;99.90;;;;;;5031459;28;20182;-68
2021/09/26 05:08:43;;;;;;;13.33;11.90;;;17.90;99.90;;;;;;5031645;28;20175;-68
2021/09/26 05:11:09;;;;;;;12.97;11.77;;;17.90;99.90;;;;;;5031671;28;20207;-68
2021/09/26 05:13:35;;;;;;;13.00;11.80;;;17.90;99.90;;;;;;5030414;28;20979;-69
2021/09/26 05:16:00;;;;;;;13.30;12.00;;;17.90;99.90;;;;;;5013923;28;20952;-68
2021/09/26 05:18:26;;;;;;;12.47;11.27;;;18.00;99.90;;;;;;5013295;28;20261;-69
2021/09/26 05:20:53;;;;;;;12.67;11.40;;;18.00;99.90;;;;;;5031662;28;20179;-68
2021/09/26 05:23:20;;;;;;;12.93;11.83;;;18.00;99.90;;;;;;5031303;28;20178;-68
2021/09/26 05:25:46;;;;;;;13.30;12.03;;;18.00;99.90;;;;;;5030966;28;20877;-68
2021/09/26 05:28:12;;;;;;;13.23;12.07;;;18.00;99.90;;;;;;5031566;28;20408;-68
2021/09/26 05:30:38;;;;;;;12.67;11.67;;;18.00;99.90;;;;;;5034128;28;20167;-68
2021/09/26 05:33:04;;;;;;;12.37;11.37;;;18.00;99.90;;;;;;5034980;28;20286;-68
2021/09/26 05:35:29;;;;;;;13.27;11.80;;;18.00;99.90;;;;;;5048869;28;20215;-68
2021/09/26 05:37:56;;;;;;;13.40;12.20;;;18.00;99.90;;;;;;5054868;28;20877;-68
2021/09/26 05:40:23;;;;;;;13.43;12.23;;;18.10;99.90;;;;;;5054616;28;20185;-75
2021/09/26 05:42:48;;;;;;;13.03;11.83;;;18.10;99.90;;;;;;5054405;28;20419;-68
2021/09/26 05:45:14;;;;;;;12.77;11.77;;;18.00;99.90;;;;;;5054256;28;20412;-68
2021/09/26 05:47:40;;;;;;;13.23;12.00;;;18.10;99.90;;;;;;5053682;28;20200;-68
2021/09/26 05:50:06;;;;;;;13.40;12.03;;;18.00;99.90;;;;;;5041800;28;20185;-68
2021/09/26 05:52:32;;;;;;;13.97;12.67;;;18.10;99.90;;;;;;5033826;28;20281;-68
2021/09/26 05:54:58;;;;;;;13.57;12.37;;;18.10;99.90;;;;;;5034800;28;20497;-67
2021/09/26 05:57:24;;;;;;;13.17;12.00;;;18.10;99.90;;;;;;5034258;28;20214;-73
2021/09/26 05:59:49;;;;;;;12.63;11.63;;;18.20;99.90;;;;;;5035202;28;20668;-68
2021/09/26 06:02:23;;;;;;;13.63;12.40;;;18.20;99.90;;;;;;5046418;28;20190;-67
2021/09/26 06:04:49;;;;;;;12.20;11.30;;;18.20;99.90;;;;;;5033892;28;20169;-67
2021/09/26 06:07:15;;;;;;;13.50;12.30;;;18.20;99.90;;;;;;5045842;28;20499;-67
2021/09/26 06:09:43;;;;;;;13.53;12.33;;;18.20;99.90;;;;;;5053412;28;20504;-67
2021/09/26 06:12:12;;;;;;;15.23;13.93;;;18.30;99.90;;;;;;5054086;28;20220;-67
2021/09/26 06:14:39;;;;;;;14.17;12.97;;;18.30;99.90;;;;;;5053361;28;20432;-67
2021/09/26 06:17:05;;;;;;;15.07;13.67;;;18.30;99.90;;;;;;5054133;28;20413;-67
2021/09/26 06:19:31;;;;;;;15.33;13.83;;;18.40;99.90;;;;;;5053084;28;20962;-67
2021/09/26 06:21:56;;;;;;;15.73;14.13;;;18.40;99.90;;;;;;5053978;28;20285;-67
2021/09/26 06:24:22;;;;;;;15.33;13.77;;;18.50;99.90;;;;;;5052794;28;20205;-67
2021/09/26 06:26:48;;;;;;;16.80;15.30;;;18.50;99.90;;;;;;5033216;28;20175;-67
2021/09/26 06:29:14;;;;;;;17.70;16.00;;;18.50;99.90;;;;;;5034090;28;20205;-68
2021/09/26 06:31:40;;;;;;;16.50;15.10;;;18.60;99.90;;;;;;5043872;28;20223;-68
2021/09/26 06:34:06;;;;;;;16.13;14.80;;;18.60;99.90;;;;;;5034596;28;20455;-69
2021/09/26 06:36:32;;;;;;;15.53;13.97;;;18.70;99.90;;;;;;5039317;28;20424;-69
2021/09/26 06:38:58;;;;;;;14.93;13.63;;;18.70;99.90;;;;;;5040302;28;20209;-68
2021/09/26 06:41:24;;;;;;;12.90;11.70;;;18.80;99.90;;;;;;5052367;28;20911;-69
2021/09/26 06:43:50;;;;;;;16.20;14.53;;;18.90;99.90;;;;;;5039159;28;20436;-69
2021/09/26 06:46:16;;;;;;;14.87;13.50;;;18.90;99.90;;;;;;5033907;28;20268;-69
2021/09/26 06:48:44;;;;;;;15.13;13.63;;;19.00;99.90;;;;;;5014442;28;20425;-68
2021/09/26 06:51:11;;;;;;;14.53;13.33;;;19.00;99.90;;;;;;5036765;28;20417;-68
2021/09/26 06:53:37;;;;;;;15.30;13.93;;;19.00;99.90;;;;;;5031852;28;20987;-68
2021/09/26 06:56:05;;;;;;;13.93;12.83;;;19.00;99.90;;;;;;5031391;28;20456;-70
2021/09/26 06:58:31;;;;;;;15.50;14.10;;;19.10;99.90;;;;;;5033222;28;20429;-69
2021/09/26 07:00:56;;;;;;;14.90;13.37;;;19.10;99.90;;;;;;5036266;28;20413;-68
2021/09/26 07:03:22;;;;;;;14.10;12.90;;;19.10;99.90;;;;;;5015745;28;20174;-68
2021/09/26 07:05:48;;;;;;;15.43;14.13;;;19.10;99.90;;;;;;5032651;28;20170;-68
2021/09/26 07:08:14;;;;;;;15.37;14.00;;;19.20;99.90;;;;;;5033191;28;20551;-68
2021/09/26 07:10:40;;;;;;;15.20;14.00;;;19.20;99.90;;;;;;5032379;28;20402;-68
2021/09/26 07:13:06;;;;;;;15.30;13.90;;;19.30;99.90;;;;;;5033980;28;20559;-69
2021/09/26 07:15:32;;;;;;;15.20;13.90;;;19.30;99.90;;;;;;5032483;28;20507;-69
2021/09/26 07:17:58;;;;;;;15.67;14.27;;;19.40;99.90;;;;;;5039439;28;20239;-68
2021/09/26 07:20:27;;;;;;;15.20;13.83;;;19.60;99.90;;;;;;5023453;28;20275;-70
2021/09/26 07:22:54;;;;;;;14.70;13.47;;;19.70;99.90;;;;;;5043944;28;20420;-69
2021/09/26 07:25:20;;;;;;;14.70;13.30;;;19.80;99.90;;;;;;5036901;28;20413;-70
2021/09/26 07:27:46;;;;;;;14.03;12.80;;;19.90;99.90;;;;;;5040234;28;20413;-70
2021/09/26 07:30:12;;;;;;;15.33;13.83;;;20.10;99.90;;;;;;5043787;28;20746;-69
2021/09/26 07:32:38;;;;;;;15.37;13.97;;;20.20;99.90;;;;;;5040731;28;20253;-70
2021/09/26 07:35:04;;;;;;;15.07;13.77;;;20.20;99.90;;;;;;5041329;28;20459;-69
2021/09/26 07:37:30;;;;;;;15.40;14.10;;;20.30;99.90;;;;;;5041461;28;20439;-80
2021/09/26 07:39:56;;;;;;;14.70;13.40;;;20.40;99.90;;;;;;5043440;28;20790;-70
2021/09/26 07:42:21;;;;;;;16.17;14.77;;;20.50;99.90;;;;;;5032990;28;20178;-70
2021/09/26 07:44:47;;;;;;;17.53;16.13;;;20.60;99.90;;;;;;5014182;28;20249;-70
2021/09/26 07:47:13;;;;;;;16.73;15.33;;;20.70;99.90;;;;;;5032525;28;20288;-69
2021/09/26 07:49:39;;;;;;;16.27;14.87;;;20.70;99.90;;;;;;5036256;28;20268;-69
2021/09/26 07:52:05;;;;;;;16.20;14.80;;;20.80;99.90;;;;;;5035277;28;20228;-69
2021/09/26 07:54:31;;;;;;;18.93;13.63;;;20.90;99.90;;;;;;5051736;28;20268;-76
2021/09/26 07:56:58;;;;;;;15.90;14.00;;;21.00;99.90;;;;;;5016860;28;20425;-68
2021/09/26 07:59:24;;;;;;;15.37;13.97;;;21.10;99.90;;;;;;5031802;28;20425;-69
2021/09/26 08:01:49;;;;;;;15.27;13.67;;;21.20;99.90;;;;;;5031363;28;20425;-69
2021/09/26 08:04:16;;;;;;;14.37;13.07;;;21.40;99.90;;;;;;5031857;28;20182;-69
2021/09/26 08:06:42;;;;;;;12.70;11.60;;;21.50;99.90;;;;;;5038902;28;20174;-69
2021/09/26 08:09:08;;;;;;;10.63;9.83;;;21.60;99.90;;;;;;5052276;28;20458;-68
2021/09/26 08:11:34;;;;;;;10.43;9.43;;;21.30;99.90;;;;;;5040911;28;20262;-75
2021/09/26 08:14:00;;;;;;;10.83;9.93;;;21.00;99.90;;;;;;5032229;28;20563;-69
2021/09/26 08:16:26;;;;;;;13.03;9.87;;;20.80;99.90;;;;;;5039726;28;20417;-69
2021/09/26 08:18:52;;;;;;;12.33;11.33;;;20.80;99.90;;;;;;5032713;28;20423;-69
2021/09/26 08:21:18;;;;;;;11.97;11.07;;;20.70;99.90;;;;;;5018411;28;20244;-69
2021/09/26 08:23:44;;;;;;;11.20;10.40;;;20.70;99.90;;;;;;5013742;28;20884;-69
2021/09/26 08:26:10;;;;;;;11.50;10.60;;;20.80;99.90;;;;;;5032134;28;20781;-68
2021/09/26 08:28:35;;;;;;;12.57;11.50;;;20.80;99.90;;;;;;5031572;28;20418;-69
2021/09/26 08:31:01;;;;;;;11.37;10.47;;;20.90;99.90;;;;;;5032107;28;20174;-69
2021/09/26 08:33:27;;;;;;;11.50;10.60;;;20.90;99.90;;;;;;5014568;28;20210;-69
2021/09/26 08:35:53;;;;;;;12.20;11.20;;;20.90;99.90;;;;;;5031062;28;20178;-69
2021/09/26 08:38:18;;;;;;;10.90;10.00;;;21.00;99.90;;;;;;5032312;28;20178;-70
2021/09/26 08:40:44;;;;;;;11.50;10.50;;;21.10;99.90;;;;;;5030938;28;20611;-70
2021/09/26 08:43:10;;;;;;;20.40;18.43;;;21.20;99.90;;;;;;5014677;28;20606;-70
2021/09/26 08:45:40;;;;;;;74.90;66.83;;;21.20;99.90;;;;;;5017063;28;20225;-78
2021/09/26 08:48:07;;;;;;;14.47;13.27;;;21.30;99.90;;;;;;5051895;28;20401;-70
2021/09/26 08:50:34;;;;;;;13.87;12.70;;;21.50;99.90;;;;;;5051479;28;20808;-79
2021/09/26 08:53:00;;;;;;;12.07;10.97;;;21.50;99.90;;;;;;5051004;28;20451;-69
2021/09/26 08:55:26;;;;;;;12.27;11.27;;;21.60;99.90;;;;;;5050611;28;20428;-70
2021/09/26 08:57:52;;;;;;;11.70;10.70;;;21.70;99.90;;;;;;5050967;28;20954;-70
2021/09/26 09:00:18;;;;;;;11.70;10.70;;;21.80;99.90;;;;;;5051767;28;20213;-70
2021/09/26 09:02:47;;;;;;;11.70;10.80;;;21.80;99.90;;;;;;5050719;28;20192;-70
2021/09/26 09:05:35;;;;;;;13.10;12.03;;;21.90;99.90;;;;;;5054869;28;20396;-69
2021/09/26 09:08:13;;;;;;;12.37;11.37;;;22.00;99.90;;;;;;5054238;28;20428;-70
2021/09/26 09:10:52;;;;;;;38.60;34.20;;;22.10;99.90;;;;;;5054851;28;20414;-70
2021/09/26 09:13:39;;;;;;;22.47;20.17;;;22.20;99.90;;;;;;5068001;28;20443;-70
2021/09/26 09:16:14;;;;;;;11.67;10.70;;;22.30;99.90;;;;;;5072214;28;20443;-69
2021/09/26 09:18:51;;;;;;;11.57;10.70;;;22.40;99.90;;;;;;5074288;28;20749;-70
2021/09/26 09:21:21;;;;;;;11.50;10.70;;;22.60;99.90;;;;;;5075518;28;20410;-69
2021/09/26 09:23:49;;;;;;;11.23;10.40;;;22.70;99.90;;;;;;5074962;28;20756;-69
2021/09/26 09:26:15;;;;;;;11.93;10.93;;;22.80;99.90;;;;;;5056676;28;20428;-67
2021/09/26 09:28:41;;;;;;;12.67;11.67;;;22.80;99.90;;;;;;5054964;28;20409;-69
2021/09/26 09:31:09;;;;;;;13.77;12.50;;;23.00;99.90;;;;;;5055503;28;20203;-68
2021/09/26 09:33:45;;;;;;;13.00;12.00;;;23.10;99.90;;;;;;5054720;28;21016;-78
2021/09/26 09:36:27;;;;;;;12.00;11.13;;;23.10;99.90;;;;;;5071643;28;20497;-69
2021/09/26 09:38:55;;;;;;;12.80;11.80;;;23.30;99.90;;;;;;5056494;28;20427;-69
2021/09/26 09:41:42;;;;;;;11.57;10.67;;;23.50;99.90;;;;;;5060182;28;20498;-69
2021/09/26 09:44:10;;;;;;;12.50;11.50;;;23.70;99.90;;;;;;5061328;28;20476;-69
2021/09/26 09:46:39;;;;;;;11.87;10.90;;;23.70;99.90;;;;;;5042448;28;20457;-78
2021/09/26 09:49:13;;;;;;;11.87;10.87;;;23.90;99.90;;;;;;5034445;28;20417;-69
2021/09/26 09:51:47;;;;;;;31.43;28.23;;;23.90;99.90;;;;;;5034033;28;20455;-78
2021/09/26 09:54:13;;;;;;;11.30;10.50;;;24.10;99.90;;;;;;5038117;28;20447;-68
2021/09/26 09:56:41;;;;;;;11.27;10.37;;;24.20;99.90;;;;;;5053928;28;20413;-78
2021/09/26 09:59:07;;;;;;;11.57;10.70;;;24.30;99.90;;;;;;5036194;28;20217;-69
2021/09/26 10:01:39;;;;;;;11.73;10.83;;;24.30;99.60;;;;;;5054561;28;20403;-69
2021/09/26 10:04:14;;;;;;;11.00;10.20;;;24.20;99.90;;;;;;5035731;28;20420;-69
2021/09/26 10:06:45;;;;;;;10.53;9.70;;;24.10;99.90;;;;;;5043890;28;21003;-69
2021/09/26 10:09:25;;;;;;;10.80;9.80;;;24.10;99.90;;;;;;5053131;28;20511;-68
2021/09/26 10:11:53;;;;;;;10.17;9.40;;;24.30;99.90;;;;;;5053505;28;20853;-68
2021/09/26 10:14:21;;;;;;;11.57;10.40;;;24.60;99.90;;;;;;5053265;28;20479;-68
2021/09/26 10:16:48;;;;;;;10.33;9.63;;;24.70;98.70;;;;;;5052433;28;20415;-68
2021/09/26 10:19:14;;;;;;;9.90;9.10;;;24.80;98.90;;;;;;5054194;28;20880;-68
2021/09/26 10:21:40;;;;;;;10.30;9.50;;;25.00;99.90;;;;;;5053632;28;20411;-75
2021/09/26 10:24:08;;;;;;;11.63;10.90;;;25.20;99.10;;;;;;5039054;28;20424;-68
2021/09/26 10:26:38;;;;;;;10.20;9.50;;;25.50;98.60;;;;;;5015995;28;20406;-68
2021/09/26 10:29:05;;;;;;;12.07;11.07;;;25.70;98.30;;;;;;5015864;28;20401;-68
2021/09/26 10:31:31;;;;;;;10.27;9.57;;;25.90;96.90;;;;;;5033956;28;20805;-68
2021/09/26 10:34:04;;;;;;;10.50;9.73;;;26.00;97.50;;;;;;5028338;28;20459;-68
2021/09/26 10:36:32;;;;;;;10.27;9.57;;;26.20;97.20;;;;;;5053878;28;20483;-68
2021/09/26 10:38:59;;;;;;;9.50;8.80;;;26.30;96.70;;;;;;5035342;28;20503;-68
2021/09/26 10:41:25;;;;;;;9.20;8.40;;;26.40;95.40;;;;;;5053709;28;20467;-68
2021/09/26 10:43:51;;;;;;;9.90;9.20;;;26.50;96.00;;;;;;5052149;28;20421;-69
2021/09/26 10:46:23;;;;;;;9.97;9.07;;;26.80;95.80;;;;;;5053402;28;20573;-68
2021/09/26 10:49:15;;;;;;;9.17;8.57;;;26.80;95.40;;;;;;5052842;28;20814;-68
2021/09/26 10:51:49;;;;;;;9.87;9.00;;;27.10;94.90;;;;;;5046805;28;20467;-77
2021/09/26 10:54:40;;;;;;;9.30;8.57;;;27.00;94.30;;;;;;5051772;28;20448;-68
2021/09/26 10:57:12;;;;;;;9.33;8.63;;;27.00;93.50;;;;;;5053526;28;20884;-68
2021/09/26 10:59:43;;;;;;;8.60;8.00;;;27.20;94.60;;;;;;5035533;28;20408;-68
2021/09/26 11:02:29;;;;;;;8.20;7.60;;;27.30;92.60;;;;;;5053268;28;20437;-68
2021/09/26 11:04:58;;;;;;;8.10;7.60;;;27.30;92.30;;;;;;5017738;28;20433;-68
2021/09/26 11:07:29;;;;;;;7.90;7.20;;;27.10;92.30;;;;;;5033250;28;20427;-68
2021/09/26 11:09:59;;;;;;;7.30;6.60;;;27.00;91.00;;;;;;5015335;28;20401;-68
2021/09/26 11:12:45;;;;;;;9.03;8.33;;;26.90;92.30;;;;;;5015589;28;20421;-68
2021/09/26 11:15:14;;;;;;;7.40;6.80;;;26.80;92.40;;;;;;5033560;28;20426;-68
2021/09/26 11:17:45;;;;;;;6.50;5.90;;;26.80;92.80;;;;;;5033201;28;21012;-68
2021/09/26 11:20:32;;;;;;;7.10;6.60;;;26.80;92.70;;;;;;5033823;28;20413;-68
2021/09/26 11:23:08;;;;;;;6.80;6.40;;;26.80;91.90;;;;;;5034448;28;20428;-68
2021/09/26 11:26:00;;;;;;;7.40;6.80;;;26.90;92.30;;;;;;5052795;28;20565;-68
2021/09/26 11:28:28;;;;;;;7.00;6.40;;;27.00;91.20;;;;;;5052607;28;20412;-68
2021/09/26 11:30:55;;;;;;;102.17;88.90;;;27.20;90.90;;;;;;5026983;28;20440;-68
2021/09/26 11:33:21;;;;;;;263.03;234.57;;;27.40;91.30;;;;;;5016136;28;20457;-69
2021/09/26 11:35:48;;;;;;;10.70;9.90;;;27.50;90.40;;;;;;5040366;28;20416;-69
2021/09/26 11:38:23;;;;;;;5.80;5.40;;;27.60;89.90;;;;;;5024918;28;20401;-69
2021/09/26 11:40:55;;;;;;;6.87;6.27;;;27.50;90.10;;;;;;5041318;28;20413;-72
2021/09/26 11:43:36;;;;;;;5.70;5.40;;;27.60;90.30;;;;;;5023979;28;20423;-69
2021/09/26 11:46:16;;;;;;;6.40;5.90;;;27.70;88.50;;;;;;5039972;28;20461;-68
2021/09/26 11:48:42;;;;;;;6.33;5.93;;;27.70;90.20;;;;;;5041180;28;20405;-78
2021/09/26 11:51:11;;;;;;;6.60;6.10;;;27.60;90.50;;;;;;5039702;28;20463;-68
2021/09/26 11:53:38;;;;;;;6.30;6.00;;;27.80;90.40;;;;;;5023295;28;20190;-68
2021/09/26 11:56:31;;;;;;;42.17;34.97;;;27.90;88.10;;;;;;5013995;28;20523;-68
2021/09/26 11:59:04;;;;;;;19.83;17.73;;;27.80;88.90;;;;;;5042401;28;20428;-68
2021/09/26 12:01:34;;;;;;;8.80;8.23;;;27.90;88.20;;;;;;5032638;28;20448;-68
2021/09/26 12:04:13;;;;;;;5.90;5.50;;;27.60;89.10;;;;;;5044438;28;20518;-68
2021/09/26 12:06:46;;;;;;;6.53;6.03;;;27.50;87.30;;;;;;5046581;28;20495;-68
2021/09/26 12:09:33;;;;;;;5.80;5.50;;;27.40;88.00;;;;;;5037237;28;20447;-69
2021/09/26 12:11:59;;;;;;;6.40;5.93;;;27.40;88.50;;;;;;5031568;28;20432;-68
2021/09/26 12:14:30;;;;;;;6.40;5.80;;;27.10;87.20;;;;;;5032153;28;20480;-68
2021/09/26 12:16:59;;;;;;;7.53;6.83;;;27.00;89.80;;;;;;5013691;28;20504;-68
2021/09/26 12:19:25;;;;;;;6.23;5.83;;;26.90;89.70;;;;;;5014700;28;20413;-68
2021/09/26 12:22:12;;;;;;;6.67;6.17;;;26.80;90.20;;;;;;5048453;28;20750;-69
2021/09/26 12:24:40;;;;;;;7.23;6.63;;;26.50;90.80;;;;;;5052139;28;20439;-69
2021/09/26 12:27:29;;;;;;;6.33;5.83;;;26.40;91.30;;;;;;5050895;28;20413;-69
2021/09/26 12:30:04;;;;;;;8.23;7.10;;;26.20;90.80;;;;;;5033621;28;20491;-69
2021/09/26 12:32:39;;;;;;;6.97;6.33;;;26.10;91.50;;;;;;5051906;28;20471;-69
2021/09/26 12:35:11;;;;;;;8.00;7.30;;;26.00;92.30;;;;;;5033633;28;20667;-69
2021/09/26 12:37:50;;;;;;;7.33;6.73;;;25.90;92.50;;;;;;5051917;28;20403;-69
2021/09/26 12:40:22;;;;;;;8.13;7.50;;;25.90;92.90;;;;;;5055089;28;20403;-69